Time;durP1;ratioP1;P1;durP2;ratioP2;P2;SDS_P1;SDS_P2;PMS_P1;PMS_P2;Temp;Humidity;BMP_temperature;BMP_pressure;BME280_temperature;BME280_humidity;BME280_pressure;Samples;Min_cycle;Max_cycle;Signal;HPM_P1;HPM_P2
2023/06/17 00:03:59;;;;;;;11.43;8.68;;;;;;;;;;13171222;22;20366;-84
2023/06/17 00:09:02;;;;;;;10.17;8.90;;;;;;;;;;13171068;22;20864;-84
2023/06/17 00:14:06;;;;;;;10.93;9.30;;;;;;;;;;13171159;22;20377;-84
2023/06/17 00:19:10;;;;;;;11.27;9.02;;;;;;;;;;13174392;22;20897;-84
2023/06/17 00:24:12;;;;;;;11.48;9.48;;;;;;;;;;13175971;22;20358;-83
2023/06/17 00:29:16;;;;;;;12.70;9.93;;;;;;;;;;13177134;22;20448;-84
2023/06/17 00:34:18;;;;;;;11.80;10.07;;;;;;;;;;13175587;22;20377;-84
2023/06/17 00:39:21;;;;;;;11.88;10.30;;;;;;;;;;13175645;22;20418;-84
2023/06/17 00:44:24;;;;;;;11.93;9.60;;;;;;;;;;13176725;22;20902;-84
2023/06/17 00:49:34;;;;;;;11.10;9.83;;;;;;;;;;13175952;22;20448;-84
2023/06/17 00:54:38;;;;;;;15.45;11.18;;;;;;;;;;13197589;22;20845;-84
2023/06/17 00:59:44;;;;;;;16.38;11.50;;;;;;;;;;13174902;22;20431;-84
2023/06/17 01:04:48;;;;;;;14.80;11.27;;;;;;;;;;13175766;22;20829;-83
2023/06/17 01:09:56;;;;;;;14.63;11.20;;;;;;;;;;13174616;22;20732;-84
2023/06/17 01:15:01;;;;;;;14.70;11.37;;;;;;;;;;13175547;22;20415;-83
2023/06/17 01:20:06;;;;;;;14.40;11.80;;;;;;;;;;13174630;22;20358;-84
2023/06/17 01:25:13;;;;;;;13.93;10.77;;;;;;;;;;13174942;22;20349;-84
2023/06/17 01:30:16;;;;;;;13.90;11.10;;;;;;;;;;13175012;22;20357;-83
2023/06/17 01:35:18;;;;;;;14.07;10.80;;;;;;;;;;13175642;22;20386;-84
2023/06/17 01:40:24;;;;;;;11.18;9.95;;;;;;;;;;13175205;22;20362;-84
2023/06/17 01:45:27;;;;;;;13.77;10.23;;;;;;;;;;13174120;22;20426;-83
2023/06/17 01:50:29;;;;;;;13.30;10.00;;;;;;;;;;13173458;22;20362;-84
2023/06/17 01:55:33;;;;;;;12.10;10.15;;;;;;;;;;13174380;22;20917;-83
2023/06/17 02:00:35;;;;;;;12.38;9.68;;;;;;;;;;13168578;22;20410;-84
2023/06/17 02:05:38;;;;;;;10.93;9.13;;;;;;;;;;13171511;22;20362;-83
2023/06/17 02:10:42;;;;;;;11.70;9.27;;;;;;;;;;13169755;22;20720;-84
2023/06/17 02:15:44;;;;;;;10.93;9.23;;;;;;;;;;13169414;22;20406;-84
2023/06/17 02:20:48;;;;;;;13.20;9.70;;;;;;;;;;13172680;22;20365;-83
2023/06/17 02:25:54;;;;;;;13.03;9.60;;;;;;;;;;13173881;22;20739;-84
2023/06/17 02:30:57;;;;;;;13.57;10.27;;;;;;;;;;13195913;22;20361;-84
2023/06/17 02:35:59;;;;;;;12.25;9.95;;;;;;;;;;13174392;22;20377;-84
2023/06/17 02:41:03;;;;;;;12.18;10.15;;;;;;;;;;13173274;22;20373;-84
2023/06/17 02:46:05;;;;;;;14.45;10.15;;;;;;;;;;13172292;22;20350;-84
2023/06/17 02:51:09;;;;;;;12.97;10.20;;;;;;;;;;13195255;22;20660;-84
2023/06/17 02:56:13;;;;;;;12.80;10.30;;;;;;;;;;13194333;22;20666;-84
2023/06/17 03:01:16;;;;;;;13.13;9.93;;;;;;;;;;13172469;22;20403;-84
2023/06/17 03:06:18;;;;;;;13.18;9.60;;;;;;;;;;13173355;22;20418;-84
2023/06/17 03:11:22;;;;;;;12.30;10.13;;;;;;;;;;13172591;22;20366;-84
2023/06/17 03:16:25;;;;;;;12.75;10.25;;;;;;;;;;13173478;22;20378;-83
2023/06/17 03:21:29;;;;;;;14.43;10.50;;;;;;;;;;13173656;22;20361;-84
2023/06/17 03:26:33;;;;;;;13.55;9.43;;;;;;;;;;13173902;22;20395;-84
2023/06/17 03:31:35;;;;;;;13.25;10.40;;;;;;;;;;13173221;22;20358;-83
2023/06/17 03:36:39;;;;;;;11.48;9.95;;;;;;;;;;13194959;22;20697;-84
2023/06/17 03:41:43;;;;;;;13.52;9.82;;;;;;;;;;13194489;22;20357;-84
2023/06/17 03:46:45;;;;;;;13.23;9.77;;;;;;;;;;13172397;22;20399;-84
2023/06/17 03:51:48;;;;;;;12.25;10.32;;;;;;;;;;13171827;22;20362;-84
2023/06/17 03:56:52;;;;;;;12.93;10.17;;;;;;;;;;13171369;22;20361;-84
2023/06/17 04:01:54;;;;;;;12.33;10.13;;;;;;;;;;13171866;22;20410;-84
2023/06/17 04:06:56;;;;;;;12.70;9.52;;;;;;;;;;13173065;22;20419;-83
2023/06/17 04:12:00;;;;;;;11.48;9.00;;;;;;;;;;13171922;22;20362;-84
2023/06/17 04:17:03;;;;;;;11.95;9.35;;;;;;;;;;13172796;22;20689;-83
2023/06/17 04:22:06;;;;;;;11.30;9.80;;;;;;;;;;13171893;22;20489;-83
2023/06/17 04:27:10;;;;;;;13.05;9.63;;;;;;;;;;13170914;22;20420;-84
2023/06/17 04:32:15;;;;;;;12.27;9.70;;;;;;;;;;13170853;22;20438;-83
2023/06/17 04:37:18;;;;;;;13.55;9.52;;;;;;;;;;13171036;22;20362;-84
2023/06/17 04:42:22;;;;;;;10.23;8.60;;;;;;;;;;13170457;22;20366;-83
2023/06/17 04:47:24;;;;;;;10.53;8.53;;;;;;;;;;13171749;22;20829;-84
2023/06/17 04:52:29;;;;;;;8.82;7.05;;;;;;;;;;13172331;22;20365;-84
2023/06/17 04:57:33;;;;;;;8.25;7.00;;;;;;;;;;13170409;22;20350;-84
2023/06/17 05:02:35;;;;;;;9.38;6.88;;;;;;;;;;13171459;22;20349;-83
2023/06/17 05:07:37;;;;;;;8.65;7.15;;;;;;;;;;13175566;22;20362;-83
2023/06/17 05:12:41;;;;;;;10.73;7.78;;;;;;;;;;13175113;22;20442;-84
2023/06/17 05:17:44;;;;;;;11.10;8.70;;;;;;;;;;13197545;22;20508;-84
2023/06/17 05:22:46;;;;;;;12.35;9.27;;;;;;;;;;13175389;22;20430;-84
2023/06/17 05:27:50;;;;;;;10.53;8.73;;;;;;;;;;13174858;22;20681;-84
2023/06/17 05:32:52;;;;;;;10.57;9.15;;;;;;;;;;13174646;22;20430;-83
2023/06/17 05:37:55;;;;;;;11.25;8.77;;;;;;;;;;13175311;22;20898;-84
2023/06/17 05:42:58;;;;;;;14.30;9.43;;;;;;;;;;13174571;22;20358;-84
2023/06/17 05:48:00;;;;;;;11.93;10.13;;;;;;;;;;13174707;22;20586;-84
2023/06/17 05:53:03;;;;;;;12.73;10.68;;;;;;;;;;13174962;22;20940;-83
2023/06/17 05:58:06;;;;;;;12.40;10.00;;;;;;;;;;13174037;22;20354;-84
2023/06/17 06:03:09;;;;;;;15.35;9.73;;;;;;;;;;13173158;22;20361;-84
2023/06/17 06:08:11;;;;;;;9.70;8.38;;;;;;;;;;13174318;22;20357;-84
2023/06/17 06:13:15;;;;;;;10.43;8.80;;;;;;;;;;13174329;22;20373;-84
2023/06/17 06:18:17;;;;;;;12.57;9.70;;;;;;;;;;13173101;22;20353;-84
2023/06/17 06:23:20;;;;;;;11.07;8.57;;;;;;;;;;13172149;22;20361;-85
2023/06/17 06:28:23;;;;;;;10.63;8.00;;;;;;;;;;13195936;22;20727;-84
2023/06/17 06:33:26;;;;;;;8.93;7.20;;;;;;;;;;13194386;22;20373;-84
2023/06/17 06:38:28;;;;;;;7.90;6.80;;;;;;;;;;13195671;22;20854;-84
2023/06/17 06:43:32;;;;;;;8.57;7.18;;;;;;;;;;13192826;22;20383;-83
2023/06/17 06:48:35;;;;;;;10.50;8.20;;;;;;;;;;13168794;22;20384;-83
2023/06/17 06:53:37;;;;;;;9.52;8.20;;;;;;;;;;13167355;22;20374;-82
2023/06/17 06:58:41;;;;;;;10.83;7.70;;;;;;;;;;13166732;22;20361;-84
2023/06/17 07:03:43;;;;;;;9.52;7.40;;;;;;;;;;13169126;22;20674;-83
2023/06/17 07:08:45;;;;;;;9.05;6.85;;;;;;;;;;13168545;22;20361;-84
2023/06/17 07:13:49;;;;;;;8.05;6.10;;;;;;;;;;13167854;22;20442;-83
2023/06/17 07:18:52;;;;;;;9.02;6.68;;;;;;;;;;13168770;22;20426;-84
2023/06/17 07:23:54;;;;;;;10.00;6.80;;;;;;;;;;13168215;22;20809;-84
2023/06/17 07:29:00;;;;;;;7.45;6.38;;;;;;;;;;13167522;22;20392;-84
2023/06/17 07:34:03;;;;;;;7.93;5.57;;;;;;;;;;13168058;22;20488;-84
2023/06/17 07:39:05;;;;;;;9.20;6.60;;;;;;;;;;13167411;22;20423;-84
2023/06/17 07:44:09;;;;;;;5.82;5.18;;;;;;;;;;13168072;22;20365;-84
2023/06/17 07:49:11;;;;;;;7.85;6.07;;;;;;;;;;13165292;22;20420;-87
2023/06/17 07:54:13;;;;;;;8.63;5.78;;;;;;;;;;13165176;22;20382;-80
2023/06/17 07:59:17;;;;;;;7.35;6.32;;;;;;;;;;13166069;22;20365;-84
2023/06/17 08:04:19;;;;;;;8.32;6.15;;;;;;;;;;13163630;22;20921;-84
2023/06/17 08:09:22;;;;;;;7.73;5.93;;;;;;;;;;13166079;22;20350;-84
2023/06/17 08:14:26;;;;;;;8.90;6.50;;;;;;;;;;13163226;22;20377;-84
2023/06/17 08:19:28;;;;;;;9.23;5.47;;;;;;;;;;13165149;22;20822;-84
2023/06/17 08:24:30;;;;;;;8.60;5.93;;;;;;;;;;13163972;22;20435;-84
2023/06/17 08:29:34;;;;;;;9.15;5.85;;;;;;;;;;13157495;22;20882;-85
2023/06/17 08:34:36;;;;;;;8.77;5.55;;;;;;;;;;13161063;22;20410;-84
2023/06/17 08:39:41;;;;;;;6.05;5.13;;;;;;;;;;13162053;22;20361;-85
2023/06/17 08:44:46;;;;;;;6.67;4.73;;;;;;;;;;13169425;22;20392;-85
2023/06/17 08:49:48;;;;;;;7.80;4.80;;;;;;;;;;13192017;22;20414;-85
2023/06/17 08:54:52;;;;;;;5.73;4.47;;;;;;;;;;13167755;22;20377;-80
2023/06/17 08:59:56;;;;;;;5.45;4.75;;;;;;;;;;13165813;22;20361;-87
2023/06/17 09:04:58;;;;;;;5.70;4.75;;;;;;;;;;13168604;22;20357;-87
2023/06/17 09:10:04;;;;;;;6.38;5.05;;;;;;;;;;13190412;22;20423;-86
2023/06/17 09:15:15;;;;;;;6.85;5.25;;;;;;;;;;13169776;22;20381;-77
2023/06/17 09:20:18;;;;;;;8.48;5.20;;;;;;;;;;13169323;22;20490;-78
2023/06/17 09:25:21;;;;;;;8.23;5.03;;;;;;;;;;13168758;22;20414;-82
2023/06/17 09:30:25;;;;;;;7.27;5.37;;;;;;;;;;13169908;22;20794;-81
2023/06/17 09:35:27;;;;;;;8.27;4.63;;;;;;;;;;13166213;22;20373;-90
2023/06/17 09:40:29;;;;;;;7.38;4.28;;;;;;;;;;13174696;22;20361;-87
2023/06/17 09:45:35;;;;;;;6.78;4.10;;;;;;;;;;13173671;22;20361;-90
2023/06/17 09:50:39;;;;;;;4.20;3.80;;;;;;;;;;13170306;22;20369;-87
2023/06/17 09:55:42;;;;;;;6.43;4.45;;;;;;;;;;13160647;22;20454;-84
2023/06/17 10:00:47;;;;;;;5.07;4.57;;;;;;;;;;13191427;22;20411;-86
2023/06/17 10:05:55;;;;;;;6.35;4.85;;;;;;;;;;13189735;22;20362;-86
2023/06/17 10:10:59;;;;;;;6.45;4.30;;;;;;;;;;13161821;22;20399;-85
2023/06/17 10:16:05;;;;;;;4.15;3.70;;;;;;;;;;13154983;22;20434;-87
2023/06/17 10:21:11;;;;;;;5.70;4.40;;;;;;;;;;13159667;22;20369;-83
2023/06/17 10:26:14;;;;;;;10.57;4.70;;;;;;;;;;13159054;22;20378;-84
2023/06/17 10:31:29;;;;;;;5.88;4.18;;;;;;;;;;13162021;22;20369;-86
2023/06/17 10:36:35;;;;;;;11.03;8.83;;;;;;;;;;13158909;22;20377;-82
2023/06/17 10:41:55;;;;;;;4.77;3.80;;;;;;;;;;13157590;22;20410;-84
2023/06/17 10:46:59;;;;;;;5.57;4.20;;;;;;;;;;13158487;22;20373;-83
2023/06/17 10:52:05;;;;;;;4.55;3.80;;;;;;;;;;13160164;22;20914;-91
2023/06/17 10:57:07;;;;;;;5.90;4.10;;;;;;;;;;13169807;22;20377;-87
2023/06/17 11:02:11;;;;;;;4.73;3.93;;;;;;;;;;13169171;22;20370;-77
2023/06/17 11:07:14;;;;;;;6.47;4.50;;;;;;;;;;13166195;22;20441;-85
2023/06/17 11:12:16;;;;;;;6.33;4.33;;;;;;;;;;13165208;22;20358;-87
2023/06/17 11:17:20;;;;;;;4.53;4.00;;;;;;;;;;13163225;22;20381;-87
2023/06/17 11:22:23;;;;;;;5.28;4.20;;;;;;;;;;13162219;22;20362;-88
2023/06/17 11:27:25;;;;;;;4.27;3.87;;;;;;;;;;13163257;22;20896;-87
2023/06/17 11:32:29;;;;;;;4.20;3.80;;;;;;;;;;13160981;22;20407;-87
2023/06/17 11:37:32;;;;;;;7.57;4.03;;;;;;;;;;13160611;22;20422;-84
2023/06/17 11:42:34;;;;;;;6.25;4.13;;;;;;;;;;13166031;22;20395;-87
2023/06/17 11:47:38;;;;;;;4.28;3.80;;;;;;;;;;13177582;22;20358;-86
2023/06/17 11:52:40;;;;;;;6.43;4.10;;;;;;;;;;13172614;22;20454;-85
2023/06/17 11:57:43;;;;;;;4.90;4.00;;;;;;;;;;13158932;22;20763;-85
2023/06/17 12:02:47;;;;;;;4.88;3.85;;;;;;;;;;13162480;22;20946;-87
2023/06/17 12:07:50;;;;;;;5.45;4.13;;;;;;;;;;13163785;22;20410;-88
2023/06/17 12:12:55;;;;;;;5.22;4.00;;;;;;;;;;13168279;22;20353;-86
2023/06/17 12:18:10;;;;;;;5.25;4.00;;;;;;;;;;13166853;22;20418;-86
2023/06/17 12:23:12;;;;;;;5.03;4.07;;;;;;;;;;13168448;22;20361;-86
2023/06/17 12:28:16;;;;;;;7.27;4.20;;;;;;;;;;13170491;22;20358;-86
2023/06/17 12:33:20;;;;;;;4.38;3.92;;;;;;;;;;13172723;22;20370;-86
2023/06/17 12:38:28;;;;;;;5.43;3.97;;;;;;;;;;13166459;22;20377;-84
2023/06/17 12:43:30;;;;;;;6.00;4.18;;;;;;;;;;13166063;22;20416;-74
2023/06/17 12:48:34;;;;;;;5.47;4.03;;;;;;;;;;13169616;22;20736;-84
2023/06/17 12:53:36;;;;;;;6.25;4.22;;;;;;;;;;13168139;22;20390;-87
2023/06/17 12:58:39;;;;;;;4.95;3.95;;;;;;;;;;13168283;22;20373;-86
2023/06/17 13:03:43;;;;;;;4.93;3.92;;;;;;;;;;13169573;22;20993;-86
2023/06/17 13:08:46;;;;;;;5.28;3.95;;;;;;;;;;13168266;22;20701;-85
2023/06/17 13:13:50;;;;;;;5.65;4.00;;;;;;;;;;13169578;22;20358;-87
2023/06/17 13:18:55;;;;;;;5.30;4.50;;;;;;;;;;13190296;22;20366;-84
2023/06/17 13:23:58;;;;;;;5.60;4.20;;;;;;;;;;13167044;22;20354;-85
2023/06/17 13:29:02;;;;;;;5.47;4.60;;;;;;;;;;13170055;22;20350;-84
2023/06/17 13:34:06;;;;;;;7.20;4.50;;;;;;;;;;13169815;22;20818;-85
2023/06/17 13:39:08;;;;;;;4.07;3.67;;;;;;;;;;13168250;22;20378;-85
2023/06/17 13:44:12;;;;;;;4.40;3.95;;;;;;;;;;13169432;22;20365;-86
2023/06/17 13:49:16;;;;;;;4.68;3.90;;;;;;;;;;13171022;22;20445;-86
2023/06/17 13:54:20;;;;;;;4.70;4.10;;;;;;;;;;13169416;22;20366;-85
2023/06/17 13:59:23;;;;;;;4.88;4.10;;;;;;;;;;13169672;22;20373;-85
2023/06/17 14:04:27;;;;;;;6.32;4.45;;;;;;;;;;13168317;22;20365;-84
2023/06/17 14:09:30;;;;;;;5.25;4.30;;;;;;;;;;13170241;22;20387;-84
2023/06/17 14:14:32;;;;;;;6.18;4.30;;;;;;;;;;13169299;22;20354;-85
2023/06/17 14:19:36;;;;;;;5.70;4.40;;;;;;;;;;13158791;22;20926;-86
2023/06/17 14:24:40;;;;;;;4.50;3.97;;;;;;;;;;13159424;22;20422;-91
2023/06/17 14:29:42;;;;;;;5.50;4.30;;;;;;;;;;13167958;22;20784;-91
2023/06/17 14:34:46;;;;;;;5.33;4.30;;;;;;;;;;13172562;22;20357;-91
2023/06/17 14:39:48;;;;;;;5.63;4.53;;;;;;;;;;13164761;22;20378;-96
2023/06/17 14:44:51;;;;;;;5.25;4.13;;;;;;;;;;13169324;22;20382;-88
2023/06/17 14:49:54;;;;;;;5.70;3.88;;;;;;;;;;13167086;22;20701;-88
2023/06/17 14:54:57;;;;;;;6.75;4.10;;;;;;;;;;13167252;22;20441;-88
2023/06/17 14:59:59;;;;;;;4.68;4.03;;;;;;;;;;13170186;22;20426;-88
2023/06/17 15:05:03;;;;;;;4.97;3.83;;;;;;;;;;13169648;22;20415;-89
2023/06/17 15:10:06;;;;;;;4.63;3.95;;;;;;;;;;13168286;22;20373;-88
2023/06/17 15:15:10;;;;;;;6.07;3.83;;;;;;;;;;13170279;22;20373;-88
2023/06/17 15:20:14;;;;;;;7.68;4.05;;;;;;;;;;13169508;22;20427;-88
2023/06/17 15:25:17;;;;;;;5.23;4.00;;;;;;;;;;13169039;22;20430;-88
2023/06/17 15:30:20;;;;;;;4.70;3.77;;;;;;;;;;13169158;22;20366;-88
2023/06/17 15:35:25;;;;;;;5.38;3.80;;;;;;;;;;13165884;22;20369;-89
2023/06/17 15:40:27;;;;;;;6.60;4.10;;;;;;;;;;13166159;22;20427;-88
2023/06/17 15:45:29;;;;;;;5.00;3.67;;;;;;;;;;13167007;22;20366;-88
2023/06/17 15:50:33;;;;;;;4.50;4.10;;;;;;;;;;13168641;22;20430;-88
2023/06/17 15:55:36;;;;;;;5.43;4.05;;;;;;;;;;13169086;22;20374;-88
2023/06/17 16:00:38;;;;;;;4.38;3.80;;;;;;;;;;13168243;22;20767;-88
2023/06/17 16:05:42;;;;;;;5.57;3.90;;;;;;;;;;13167271;22;20373;-88
2023/06/17 16:10:44;;;;;;;6.13;4.10;;;;;;;;;;13173449;22;20374;-87
2023/06/17 16:15:47;;;;;;;6.07;4.10;;;;;;;;;;13168163;22;20385;-88
2023/06/17 16:20:50;;;;;;;4.53;3.60;;;;;;;;;;13176021;22;20427;-88
2023/06/17 16:25:53;;;;;;;5.73;4.33;;;;;;;;;;13168976;22;20432;-88
2023/06/17 16:30:55;;;;;;;5.73;3.93;;;;;;;;;;13167666;22;20373;-87
2023/06/17 16:35:59;;;;;;;4.80;4.03;;;;;;;;;;13163960;22;20744;-88
2023/06/17 16:41:01;;;;;;;3.90;3.50;;;;;;;;;;13168042;22;20365;-88
2023/06/17 16:46:04;;;;;;;5.47;3.83;;;;;;;;;;13167580;22;20369;-88
2023/06/17 16:51:08;;;;;;;4.22;3.75;;;;;;;;;;13186161;22;20430;-88
2023/06/17 16:56:10;;;;;;;4.10;3.70;;;;;;;;;;13189336;22;20955;-87
2023/06/17 17:01:12;;;;;;;4.67;3.77;;;;;;;;;;13169585;22;20454;-87
2023/06/17 17:06:16;;;;;;;4.15;3.53;;;;;;;;;;13170840;22;20365;-88
2023/06/17 17:11:19;;;;;;;5.50;3.70;;;;;;;;;;13171379;22;20422;-88
2023/06/17 17:16:21;;;;;;;5.28;3.85;;;;;;;;;;13171164;22;20434;-88
2023/06/17 17:21:25;;;;;;;4.10;3.70;;;;;;;;;;13167504;22;20910;-85
2023/06/17 17:26:27;;;;;;;4.15;3.75;;;;;;;;;;13161752;22;20455;-85
2023/06/17 17:31:29;;;;;;;6.07;3.75;;;;;;;;;;13162217;22;20430;-85
2023/06/17 17:36:35;;;;;;;7.30;3.67;;;;;;;;;;13160941;22;20393;-85
2023/06/17 17:41:37;;;;;;;5.32;4.10;;;;;;;;;;13162029;22;20434;-85
2023/06/17 17:46:40;;;;;;;5.43;4.10;;;;;;;;;;13161118;22;21298;-84
2023/06/17 17:51:43;;;;;;;5.53;3.90;;;;;;;;;;13166227;22;20434;-87
2023/06/17 17:56:46;;;;;;;4.75;4.00;;;;;;;;;;13174308;22;20377;-88
2023/06/17 18:01:48;;;;;;;7.03;4.35;;;;;;;;;;13174905;22;20438;-90
2023/06/17 18:06:52;;;;;;;6.85;4.68;;;;;;;;;;13172319;22;20353;-84
2023/06/17 18:11:54;;;;;;;6.18;4.50;;;;;;;;;;13159406;22;20391;-85
2023/06/17 18:16:56;;;;;;;5.93;4.35;;;;;;;;;;13160836;22;20381;-85
2023/06/17 18:22:00;;;;;;;6.30;4.20;;;;;;;;;;13166322;22;20369;-84
2023/06/17 18:27:03;;;;;;;4.50;4.03;;;;;;;;;;13160512;22;20378;-84
2023/06/17 18:32:06;;;;;;;5.05;4.28;;;;;;;;;;13160204;22;20373;-84
2023/06/17 18:37:09;;;;;;;5.03;4.22;;;;;;;;;;13160515;22;20475;-85
2023/06/17 18:42:12;;;;;;;6.32;4.20;;;;;;;;;;13164632;22;20931;-85
2023/06/17 18:47:14;;;;;;;5.50;4.35;;;;;;;;;;13163592;22;20385;-85
2023/06/17 18:52:18;;;;;;;5.57;4.47;;;;;;;;;;13160143;22;20370;-84
2023/06/17 18:57:21;;;;;;;5.18;4.03;;;;;;;;;;13159381;22;20411;-85
2023/06/17 19:02:25;;;;;;;5.28;4.57;;;;;;;;;;13159496;22;20361;-85
2023/06/17 19:07:28;;;;;;;8.00;4.40;;;;;;;;;;13159962;22;20383;-85
2023/06/17 19:12:31;;;;;;;7.07;5.00;;;;;;;;;;13158968;22;20374;-85
2023/06/17 19:17:34;;;;;;;7.60;5.00;;;;;;;;;;13158824;22;20407;-85
2023/06/17 19:22:38;;;;;;;8.13;4.90;;;;;;;;;;13166485;22;20403;-85
2023/06/17 19:27:40;;;;;;;7.00;4.90;;;;;;;;;;13161477;22;20460;-85
2023/06/17 19:32:42;;;;;;;6.32;5.40;;;;;;;;;;13158300;22;20391;-86
2023/06/17 19:37:46;;;;;;;8.23;6.53;;;;;;;;;;13160146;22;20454;-84
2023/06/17 19:42:48;;;;;;;7.33;5.60;;;;;;;;;;13175049;22;20374;-85
2023/06/17 19:47:51;;;;;;;7.13;5.38;;;;;;;;;;13163984;22;20902;-86
2023/06/17 19:52:54;;;;;;;7.55;5.22;;;;;;;;;;13164322;22;20365;-85
2023/06/17 19:57:57;;;;;;;8.17;5.97;;;;;;;;;;13162174;22;20853;-85
2023/06/17 20:02:59;;;;;;;6.17;4.70;;;;;;;;;;13164202;22;20361;-85
2023/06/17 20:08:03;;;;;;;5.72;4.53;;;;;;;;;;13163728;22;20925;-85
2023/06/17 20:13:06;;;;;;;5.97;5.13;;;;;;;;;;13166653;22;20373;-85
2023/06/17 20:18:08;;;;;;;5.90;4.97;;;;;;;;;;13163036;22;20382;-83
2023/06/17 20:23:12;;;;;;;6.38;5.20;;;;;;;;;;13171558;22;20399;-85
2023/06/17 20:28:14;;;;;;;6.60;5.50;;;;;;;;;;13162950;22;20373;-85
2023/06/17 20:33:16;;;;;;;7.38;6.03;;;;;;;;;;13163929;22;20464;-85
2023/06/17 20:38:20;;;;;;;9.03;5.47;;;;;;;;;;13167387;22;20389;-85
2023/06/17 20:43:23;;;;;;;7.38;6.00;;;;;;;;;;13166985;22;21144;-85
2023/06/17 20:48:25;;;;;;;8.93;6.13;;;;;;;;;;13167269;22;20369;-85
2023/06/17 20:53:29;;;;;;;9.60;6.82;;;;;;;;;;13166929;22;20395;-86
2023/06/17 20:58:31;;;;;;;9.40;7.38;;;;;;;;;;13167056;22;20406;-86
2023/06/17 21:03:34;;;;;;;8.60;6.97;;;;;;;;;;13168685;22;20485;-86
2023/06/17 21:08:37;;;;;;;10.20;6.75;;;;;;;;;;13167613;22;20419;-86
2023/06/17 21:13:40;;;;;;;7.87;6.50;;;;;;;;;;13168178;22;20373;-87
2023/06/17 21:18:42;;;;;;;9.27;7.40;;;;;;;;;;13169035;22;20759;-87
2023/06/17 21:23:46;;;;;;;8.13;7.32;;;;;;;;;;13169059;22;21200;-87
2023/06/17 21:28:48;;;;;;;8.82;7.50;;;;;;;;;;13168149;22;20357;-86
2023/06/17 21:33:53;;;;;;;10.10;7.13;;;;;;;;;;13182950;22;20374;-87
2023/06/17 21:38:56;;;;;;;12.52;8.00;;;;;;;;;;13168350;22;20411;-87
2023/06/17 21:43:59;;;;;;;11.57;7.97;;;;;;;;;;13169777;22;20427;-87
2023/06/17 21:49:01;;;;;;;10.88;8.32;;;;;;;;;;13170198;22;20445;-87
2023/06/17 21:54:05;;;;;;;12.50;8.95;;;;;;;;;;13170983;22;20354;-86
2023/06/17 21:59:08;;;;;;;10.83;8.90;;;;;;;;;;13193555;22;20366;-86
2023/06/17 22:04:10;;;;;;;10.60;8.77;;;;;;;;;;13172962;22;20399;-86
2023/06/17 22:09:16;;;;;;;12.13;9.73;;;;;;;;;;13173317;22;20412;-86
2023/06/17 22:14:18;;;;;;;12.00;9.70;;;;;;;;;;13176006;22;20370;-86
2023/06/17 22:19:20;;;;;;;11.60;9.80;;;;;;;;;;13174432;22;20851;-87
2023/06/17 22:24:24;;;;;;;12.63;9.30;;;;;;;;;;13175563;22;20430;-86
2023/06/17 22:29:26;;;;;;;12.73;10.10;;;;;;;;;;13176973;22;20350;-87
2023/06/17 22:34:29;;;;;;;13.65;9.98;;;;;;;;;;13175776;22;20422;-86
2023/06/17 22:39:33;;;;;;;13.20;10.27;;;;;;;;;;13174515;22;20362;-86
2023/06/17 22:44:35;;;;;;;13.68;10.60;;;;;;;;;;13176749;22;20418;-86
2023/06/17 22:49:37;;;;;;;11.30;9.80;;;;;;;;;;13174940;22;20389;-86
2023/06/17 22:54:41;;;;;;;12.90;10.70;;;;;;;;;;13173977;22;20358;-86
2023/06/17 22:59:43;;;;;;;14.73;10.60;;;;;;;;;;13175399;22;20407;-86
2023/06/17 23:04:45;;;;;;;14.60;10.13;;;;;;;;;;13176851;22;20362;-86
2023/06/17 23:09:49;;;;;;;15.38;10.23;;;;;;;;;;13198064;22;20833;-86
2023/06/17 23:14:51;;;;;;;11.90;9.50;;;;;;;;;;13175066;22;20410;-86
2023/06/17 23:19:56;;;;;;;12.35;9.63;;;;;;;;;;13176780;22;20408;-86
2023/06/17 23:25:01;;;;;;;12.05;9.80;;;;;;;;;;13174964;22;20354;-85
2023/06/17 23:30:04;;;;;;;12.32;10.32;;;;;;;;;;13175851;22;20350;-85
2023/06/17 23:35:08;;;;;;;12.95;10.23;;;;;;;;;;13176467;22;20426;-85
2023/06/17 23:40:12;;;;;;;12.00;10.33;;;;;;;;;;13172814;22;20373;-86
2023/06/17 23:45:14;;;;;;;11.27;9.23;;;;;;;;;;13175099;22;20451;-86
2023/06/17 23:50:17;;;;;;;13.75;10.05;;;;;;;;;;13173924;22;20809;-86
2023/06/17 23:55:20;;;;;;;11.07;9.50;;;;;;;;;;13194789;22;20446;-86
